createdAt,value
2023-11-30T00:00:02.612Z,89.54
2023-11-30T00:02:33.430Z,87.62
2023-11-30T00:05:01.393Z,87.07
2023-11-30T00:07:29.347Z,86.90
2023-11-30T00:09:57.250Z,87.15
2023-11-30T00:12:25.207Z,87.83
2023-11-30T00:14:53.138Z,85.69
2023-11-30T00:17:22.452Z,84.87
2023-11-30T00:19:50.357Z,88.89
2023-11-30T00:22:18.329Z,87.54
2023-11-30T00:24:46.371Z,89.35
2023-11-30T00:27:14.366Z,85.99
2023-11-30T00:29:42.424Z,88.13
2023-11-30T00:32:10.398Z,91.13
2023-11-30T00:34:39.681Z,90.00
2023-11-30T00:37:07.604Z,86.98
2023-11-30T00:39:35.829Z,87.04
2023-11-30T00:42:04.352Z,85.65
2023-11-30T00:44:32.453Z,86.79
2023-11-30T00:47:00.442Z,89.98
2023-11-30T00:49:28.343Z,93.60
2023-11-30T00:51:57.650Z,93.22
2023-11-30T00:54:25.679Z,93.57
2023-11-30T00:56:53.797Z,94.40
2023-11-30T00:59:21.819Z,91.85
2023-11-30T01:01:49.789Z,92.90
2023-11-30T01:04:17.848Z,95.80
2023-11-30T01:06:45.789Z,92.54
2023-11-30T01:09:15.182Z,93.03
2023-11-30T01:11:44.470Z,91.09
2023-11-30T01:14:12.825Z,91.89
2023-11-30T01:16:41.579Z,95.09
2023-11-30T01:19:09.569Z,94.35
2023-11-30T01:21:37.511Z,95.72
2023-11-30T01:24:06.218Z,92.14
2023-11-30T01:26:35.612Z,90.20
2023-11-30T01:29:03.506Z,90.64
2023-11-30T01:31:31.485Z,94.65
2023-11-30T01:33:59.474Z,94.73
2023-11-30T01:36:27.441Z,94.40
2023-11-30T01:38:55.414Z,94.29
2023-11-30T01:41:23.473Z,93.35
2023-11-30T01:43:52.834Z,94.61
2023-11-30T01:46:21.549Z,94.34
2023-11-30T01:48:49.850Z,95.18
2023-11-30T01:51:18.149Z,95.64
2023-11-30T01:53:46.382Z,94.72
2023-11-30T01:56:16.068Z,93.77
2023-11-30T01:58:44.165Z,95.11
2023-11-30T02:01:13.911Z,95.05
2023-11-30T02:03:42.087Z,95.20
2023-11-30T02:06:10.907Z,94.95
2023-11-30T02:08:38.880Z,94.56
2023-11-30T02:11:07.450Z,95.04
2023-11-30T02:13:35.466Z,94.29
2023-11-30T02:16:03.484Z,94.03
2023-11-30T02:18:33.263Z,93.38
2023-11-30T02:21:01.256Z,93.54
2023-11-30T02:23:30.649Z,91.96
2023-11-30T02:25:58.635Z,95.05
2023-11-30T02:28:26.598Z,95.84
2023-11-30T02:30:54.530Z,95.83
2023-11-30T02:33:22.586Z,95.94
2023-11-30T02:35:50.673Z,96.63
2023-11-30T02:38:18.667Z,96.28
2023-11-30T02:40:48.091Z,96.31
2023-11-30T02:43:16.012Z,96.14
2023-11-30T02:45:44.006Z,96.63
2023-11-30T02:48:12.199Z,96.60
2023-11-30T02:50:40.218Z,97.82
2023-11-30T02:53:08.155Z,97.03
2023-11-30T02:55:36.098Z,96.92
2023-11-30T02:58:05.430Z,96.38
2023-11-30T03:00:33.434Z,97.10
2023-11-30T03:03:01.454Z,98.30
2023-11-30T03:05:29.362Z,98.26
2023-11-30T03:07:57.278Z,98.09
2023-11-30T03:10:25.189Z,97.40
2023-11-30T03:12:53.153Z,97.69
2023-11-30T03:15:23.380Z,97.28
2023-11-30T03:17:51.627Z,96.22
2023-11-30T03:20:19.718Z,94.52
2023-11-30T03:22:47.655Z,95.56
2023-11-30T03:25:15.613Z,96.60
2023-11-30T03:27:43.569Z,97.45
2023-11-30T03:30:12.752Z,98.03
2023-11-30T03:32:42.152Z,97.07
2023-11-30T03:35:10.512Z,97.31
2023-11-30T03:37:41.706Z,98.78
2023-11-30T03:40:10.819Z,98.88
2023-11-30T03:42:38.794Z,98.67
2023-11-30T03:45:07.567Z,98.84
2023-11-30T03:47:35.580Z,98.77
2023-11-30T03:50:05.219Z,97.63
2023-11-30T03:52:33.221Z,97.26
2023-11-30T03:55:01.158Z,97.42
2023-11-30T03:57:29.168Z,97.57
2023-11-30T03:59:57.142Z,97.63
2023-11-30T04:02:25.180Z,98.24
2023-11-30T04:04:53.205Z,98.16
2023-11-30T04:07:23.175Z,99.93
2023-11-30T04:09:51.130Z,99.57
2023-11-30T04:12:19.089Z,98.61
2023-11-30T04:14:47.107Z,98.70
2023-11-30T04:17:15.104Z,98.96
2023-11-30T04:19:43.192Z,98.19
2023-11-30T04:22:11.274Z,99.13
2023-11-30T04:24:40.914Z,99.30
2023-11-30T04:27:08.977Z,99.06
2023-11-30T04:29:37.232Z,98.76
2023-11-30T04:32:05.790Z,98.35
2023-11-30T04:34:34.826Z,97.52
2023-11-30T04:37:02.790Z,98.05
2023-11-30T04:39:30.804Z,98.13
2023-11-30T04:42:00.314Z,98.11
2023-11-30T04:44:30.672Z,98.18
2023-11-30T04:46:58.655Z,98.02
2023-11-30T04:49:26.823Z,98.28
2023-11-30T04:51:54.784Z,95.56
2023-11-30T04:54:22.816Z,98.07
2023-11-30T04:56:50.772Z,98.10
2023-11-30T04:59:20.179Z,98.69
2023-11-30T05:01:48.268Z,99.82
2023-11-30T05:04:16.385Z,98.64
2023-11-30T05:06:44.408Z,96.97
2023-11-30T05:09:12.411Z,94.08
2023-11-30T05:11:40.507Z,94.39
2023-11-30T05:14:08.444Z,92.20
2023-11-30T05:16:37.783Z,94.23
2023-11-30T05:19:05.775Z,94.16
2023-11-30T05:21:33.857Z,93.94
2023-11-30T05:24:01.816Z,93.44
2023-11-30T05:26:29.768Z,93.47
2023-11-30T05:28:57.750Z,94.77
2023-11-30T05:31:26.075Z,93.79
2023-11-30T05:33:55.661Z,91.73
2023-11-30T05:36:23.611Z,88.83
2023-11-30T05:38:51.918Z,90.64
2023-11-30T05:41:19.962Z,88.45
2023-11-30T05:43:47.955Z,89.55
2023-11-30T05:46:15.938Z,89.59
2023-11-30T05:48:43.957Z,89.48
2023-11-30T05:51:13.623Z,90.86
2023-11-30T05:53:41.873Z,94.38
2023-11-30T05:56:10.550Z,93.84
2023-11-30T05:58:39.225Z,94.39
2023-11-30T06:01:07.690Z,93.46
2023-11-30T06:03:35.740Z,93.46
2023-11-30T06:06:03.764Z,90.71
2023-11-30T06:08:33.069Z,91.52
2023-11-30T06:11:01.185Z,92.50
2023-11-30T06:13:29.118Z,90.13
2023-11-30T06:15:57.177Z,91.77
2023-11-30T06:18:25.534Z,92.42
2023-11-30T06:20:53.563Z,90.95
2023-11-30T06:23:21.523Z,94.44
2023-11-30T06:25:50.836Z,95.13
2023-11-30T06:28:18.807Z,95.18
2023-11-30T06:30:46.781Z,94.51
2023-11-30T06:33:15.751Z,93.58
2023-11-30T06:35:43.738Z,91.06
2023-11-30T06:38:13.008Z,90.75
2023-11-30T06:40:40.981Z,90.96
2023-11-30T06:43:10.275Z,93.84
2023-11-30T06:45:38.266Z,94.14
2023-11-30T06:48:06.728Z,92.63
2023-11-30T06:50:34.718Z,93.43
2023-11-30T06:53:02.629Z,94.00
2023-11-30T06:55:30.688Z,96.29
2023-11-30T06:57:58.640Z,95.16
2023-11-30T07:00:28.755Z,96.34
2023-11-30T07:02:56.761Z,96.60
2023-11-30T07:05:25.519Z,97.54
2023-11-30T07:07:53.585Z,98.09
2023-11-30T07:10:21.543Z,97.96
2023-11-30T07:12:49.544Z,97.77
2023-11-30T07:15:17.562Z,97.57
2023-11-30T07:17:46.994Z,96.56
2023-11-30T07:20:14.969Z,97.94
2023-11-30T07:22:42.932Z,97.29
2023-11-30T07:25:11.080Z,96.29
2023-11-30T07:27:39.101Z,97.14
2023-11-30T07:30:12.693Z,97.49
2023-11-30T07:32:41.235Z,96.13
2023-11-30T07:35:10.889Z,96.99
2023-11-30T07:37:38.807Z,97.01
2023-11-30T07:40:07.773Z,96.94
2023-11-30T07:42:37.793Z,97.24
2023-11-30T07:45:07.294Z,97.08
2023-11-30T07:47:35.255Z,96.98
2023-11-30T07:50:03.405Z,97.27
2023-11-30T07:52:36.467Z,97.35
2023-11-30T07:55:06.227Z,97.15
2023-11-30T07:57:34.450Z,98.72
2023-11-30T08:00:06.273Z,98.16
2023-11-30T08:02:35.392Z,97.54
2023-11-30T08:05:03.440Z,98.87
2023-11-30T08:07:32.902Z,98.73
2023-11-30T08:10:00.838Z,98.47
2023-11-30T08:12:28.823Z,97.86
2023-11-30T08:14:56.785Z,98.74
2023-11-30T08:17:25.263Z,98.41
2023-11-30T08:19:53.241Z,97.62
2023-11-30T08:22:21.160Z,97.02
2023-11-30T08:24:50.493Z,97.07
2023-11-30T08:27:18.605Z,96.29
2023-11-30T08:29:46.544Z,96.31
2023-11-30T08:32:14.526Z,95.40
2023-11-30T08:34:42.488Z,95.95
2023-11-30T08:37:10.490Z,96.41
2023-11-30T08:39:39.037Z,94.99
2023-11-30T08:42:09.026Z,95.64
2023-11-30T08:44:36.936Z,94.78
2023-11-30T08:47:05.043Z,95.47
2023-11-30T08:49:33.212Z,94.81
2023-11-30T08:52:01.165Z,93.92
2023-11-30T08:54:29.119Z,92.87
2023-11-30T08:56:57.990Z,93.19
2023-11-30T08:59:27.287Z,93.79
2023-11-30T09:01:55.416Z,92.49
2023-11-30T09:04:23.719Z,93.00
2023-11-30T09:06:51.668Z,91.97
2023-11-30T09:09:19.639Z,92.82
2023-11-30T09:11:47.621Z,93.15
2023-11-30T09:14:15.717Z,93.37
2023-11-30T09:16:45.346Z,93.26
2023-11-30T09:19:13.330Z,93.82
2023-11-30T09:21:41.321Z,94.16
2023-11-30T09:24:11.159Z,92.97
2023-11-30T09:26:39.126Z,93.19
2023-11-30T09:29:07.279Z,92.67
2023-11-30T09:31:35.366Z,93.33
2023-11-30T09:34:04.849Z,93.05
2023-11-30T09:36:33.150Z,93.06
2023-11-30T09:39:01.136Z,92.95
2023-11-30T09:41:29.192Z,93.49
2023-11-30T09:43:59.106Z,92.88
2023-11-30T09:46:27.774Z,92.74
2023-11-30T09:48:55.797Z,93.27
2023-11-30T09:51:29.284Z,92.27
2023-11-30T09:53:58.598Z,92.51
2023-11-30T09:56:27.883Z,92.92
2023-11-30T09:58:56.099Z,93.04
2023-11-30T10:01:24.877Z,93.31
2023-11-30T10:03:53.399Z,93.36
2023-11-30T10:06:21.531Z,94.44
2023-11-30T10:08:50.855Z,93.97
2023-11-30T10:11:21.068Z,93.56
2023-11-30T10:13:49.035Z,93.01
2023-11-30T10:16:17.091Z,93.64
2023-11-30T10:18:45.283Z,93.44
2023-11-30T10:21:13.405Z,93.37
2023-11-30T10:23:41.469Z,93.46
2023-11-30T10:26:16.623Z,92.18
2023-11-30T10:28:44.895Z,93.02
2023-11-30T10:31:17.213Z,91.30
2023-11-30T10:33:53.277Z,92.07
2023-11-30T10:36:21.937Z,91.68
2023-11-30T10:38:57.124Z,90.82
2023-11-30T10:41:32.235Z,89.47
2023-11-30T10:44:02.089Z,89.80
2023-11-30T10:46:34.600Z,88.31
2023-11-30T10:49:05.498Z,90.60
2023-11-30T10:51:34.678Z,90.43
2023-11-30T10:54:10.311Z,91.99
2023-11-30T10:56:39.978Z,89.41
2023-11-30T10:59:13.925Z,89.92
2023-11-30T11:01:45.497Z,88.95
2023-11-30T11:04:16.099Z,89.68
2023-11-30T11:06:45.190Z,88.07
2023-11-30T11:09:16.948Z,87.60
2023-11-30T11:11:46.435Z,91.02
2023-11-30T11:14:27.383Z,88.38
2023-11-30T11:17:08.254Z,89.59
2023-11-30T11:19:40.284Z,90.67
2023-11-30T11:22:18.898Z,91.51
2023-11-30T11:24:48.519Z,90.72
2023-11-30T11:27:30.290Z,90.58
2023-11-30T11:30:00.551Z,91.00
2023-11-30T11:32:29.711Z,90.06
2023-11-30T11:34:57.697Z,91.32
2023-11-30T11:37:25.683Z,87.85
2023-11-30T11:39:56.078Z,89.14
2023-11-30T11:42:24.212Z,88.76
2023-11-30T11:44:53.549Z,89.44
2023-11-30T11:47:22.641Z,90.79
2023-11-30T11:49:50.867Z,87.28
2023-11-30T11:52:22.270Z,86.44
2023-11-30T11:55:00.886Z,88.63
2023-11-30T11:57:37.876Z,91.04
2023-11-30T12:00:11.391Z,89.91
2023-11-30T12:02:39.574Z,89.66
2023-11-30T12:05:09.954Z,92.24
2023-11-30T12:07:49.220Z,92.98
2023-11-30T12:10:31.426Z,93.73
2023-11-30T12:13:01.910Z,92.47
2023-11-30T12:15:31.744Z,89.81
2023-11-30T12:18:00.360Z,90.79
2023-11-30T12:20:28.627Z,90.77
2023-11-30T12:22:56.926Z,91.66
2023-11-30T12:25:26.861Z,94.29
2023-11-30T12:27:54.837Z,94.66
2023-11-30T12:30:24.368Z,94.50
2023-11-30T12:32:54.012Z,95.38
2023-11-30T12:35:22.595Z,96.04
2023-11-30T12:37:50.746Z,91.68
2023-11-30T12:40:19.124Z,92.49
2023-11-30T12:42:47.151Z,94.26
2023-11-30T12:45:15.217Z,94.83
2023-11-30T12:47:44.028Z,96.17
2023-11-30T12:50:13.746Z,95.73
2023-11-30T12:52:42.214Z,97.60
2023-11-30T12:55:10.609Z,97.00
2023-11-30T12:57:40.578Z,97.65
2023-11-30T13:00:16.022Z,97.96
2023-11-30T13:02:46.935Z,96.49
2023-11-30T13:05:17.599Z,97.67
2023-11-30T13:07:45.660Z,96.55
2023-11-30T13:10:14.048Z,95.36
2023-11-30T13:12:43.431Z,90.97
2023-11-30T13:15:13.503Z,94.52
2023-11-30T13:17:42.564Z,91.13
2023-11-30T13:20:14.702Z,93.62
2023-11-30T13:22:46.133Z,93.74
2023-11-30T13:25:15.969Z,92.58
2023-11-30T13:27:47.364Z,92.85
2023-11-30T13:30:17.781Z,92.85
2023-11-30T13:32:47.356Z,91.56
2023-11-30T13:35:15.531Z,95.68
2023-11-30T13:37:44.868Z,95.09
2023-11-30T13:40:13.388Z,94.14
2023-11-30T13:42:41.624Z,91.55
2023-11-30T13:45:10.566Z,93.87
2023-11-30T13:47:41.392Z,94.12
2023-11-30T13:50:20.376Z,96.26
2023-11-30T13:52:59.836Z,95.19
2023-11-30T13:55:27.870Z,96.39
2023-11-30T13:57:56.003Z,97.80
2023-11-30T14:00:24.761Z,99.22
2023-11-30T14:02:52.952Z,97.00
2023-11-30T14:05:21.050Z,97.01
2023-11-30T14:07:49.066Z,98.22
2023-11-30T14:10:18.532Z,98.43
2023-11-30T14:12:46.524Z,97.47
2023-11-30T14:15:15.110Z,98.14
2023-11-30T14:17:44.157Z,97.33
2023-11-30T14:20:12.366Z,97.56
2023-11-30T14:22:40.333Z,98.93
2023-11-30T14:25:09.558Z,98.50
2023-11-30T14:27:38.909Z,98.55
2023-11-30T14:30:10.772Z,96.91
2023-11-30T14:32:41.456Z,93.19
2023-11-30T14:35:13.074Z,96.54
2023-11-30T14:37:42.760Z,97.74
2023-11-30T14:40:13.743Z,98.57
2023-11-30T14:42:43.420Z,98.30
2023-11-30T14:45:13.679Z,97.28
2023-11-30T14:47:44.503Z,99.04
2023-11-30T14:50:13.347Z,100.00
2023-11-30T14:52:45.203Z,99.53
2023-11-30T14:55:13.411Z,100.00
2023-11-30T14:57:42.247Z,99.58
2023-11-30T15:00:13.674Z,100.00
2023-11-30T15:02:45.265Z,100.00
2023-11-30T15:05:15.539Z,100.00
2023-11-30T15:07:44.631Z,100.00
2023-11-30T15:10:13.279Z,100.00
2023-11-30T15:12:41.366Z,100.00
2023-11-30T15:15:15.444Z,100.00
2023-11-30T15:17:45.451Z,100.00
2023-11-30T15:20:15.582Z,99.65
2023-11-30T15:22:44.963Z,100.00
2023-11-30T15:25:18.674Z,100.00
2023-11-30T15:27:47.743Z,100.00
2023-11-30T15:30:17.880Z,100.00
2023-11-30T15:32:46.072Z,100.00
2023-11-30T15:35:14.050Z,97.24
2023-11-30T15:37:47.296Z,98.92
2023-11-30T15:40:17.653Z,98.35
2023-11-30T15:42:46.427Z,100.00
2023-11-30T15:45:18.943Z,100.00
2023-11-30T15:47:47.353Z,100.00
2023-11-30T15:50:15.677Z,100.00
2023-11-30T15:52:44.117Z,100.00
2023-11-30T15:55:13.710Z,99.24
2023-11-30T15:57:42.513Z,99.58
2023-11-30T16:00:13.261Z,100.00
2023-11-30T16:02:46.427Z,100.00
2023-11-30T16:05:15.277Z,100.00
2023-11-30T16:07:43.222Z,100.00
2023-11-30T16:10:12.138Z,100.00
2023-11-30T16:12:40.310Z,100.00
2023-11-30T16:15:11.693Z,100.00
2023-11-30T16:17:41.911Z,100.00
2023-11-30T16:20:12.725Z,100.00
2023-11-30T16:22:41.758Z,100.00
2023-11-30T16:25:11.998Z,100.00
2023-11-30T16:27:40.771Z,100.00
2023-11-30T16:30:10.044Z,98.62
2023-11-30T16:32:38.044Z,100.00
2023-11-30T16:35:08.840Z,100.00
2023-11-30T16:37:36.884Z,100.00
2023-11-30T16:40:05.881Z,100.00
2023-11-30T16:42:34.315Z,100.00
2023-11-30T16:45:04.145Z,100.00
2023-11-30T16:47:33.715Z,100.00
2023-11-30T16:50:04.061Z,100.00
2023-11-30T16:52:33.606Z,100.00
2023-11-30T16:55:01.983Z,100.00
2023-11-30T16:57:33.245Z,100.00
2023-11-30T17:00:03.923Z,100.00
2023-11-30T17:02:32.451Z,100.00
2023-11-30T17:05:00.587Z,100.00
2023-11-30T17:07:29.528Z,100.00
2023-11-30T17:09:59.079Z,100.00
2023-11-30T17:12:27.350Z,100.00
2023-11-30T17:14:55.372Z,100.00
2023-11-30T17:17:23.429Z,100.00
2023-11-30T17:19:51.350Z,100.00
2023-11-30T17:22:19.356Z,100.00
2023-11-30T17:24:47.335Z,100.00
2023-11-30T17:27:18.061Z,100.00
2023-11-30T17:29:46.084Z,100.00
2023-11-30T17:32:14.145Z,100.00
2023-11-30T17:34:42.411Z,100.00
2023-11-30T17:37:10.674Z,100.00
2023-11-30T17:39:38.663Z,100.00
2023-11-30T17:42:07.043Z,100.00
2023-11-30T17:44:36.607Z,100.00
2023-11-30T17:47:04.704Z,100.00
2023-11-30T17:49:34.360Z,100.00
2023-11-30T17:52:02.384Z,100.00
2023-11-30T17:54:30.607Z,100.00
2023-11-30T17:56:59.839Z,100.00
2023-11-30T17:59:27.832Z,100.00
2023-11-30T18:01:57.281Z,100.00
2023-11-30T18:04:25.452Z,100.00
2023-11-30T18:06:53.574Z,100.00
2023-11-30T18:09:21.631Z,100.00
2023-11-30T18:11:49.608Z,100.00
2023-11-30T18:14:18.955Z,100.00
2023-11-30T18:16:47.011Z,100.00
2023-11-30T18:19:16.445Z,100.00
2023-11-30T18:21:44.485Z,100.00
2023-11-30T18:24:12.483Z,100.00
2023-11-30T18:26:40.481Z,100.00
2023-11-30T18:29:10.431Z,100.00
2023-11-30T18:31:38.736Z,100.00
2023-11-30T18:34:07.889Z,100.00
2023-11-30T18:36:37.342Z,100.00
2023-11-30T18:39:06.781Z,100.00
2023-11-30T18:41:36.494Z,100.00
2023-11-30T18:44:04.864Z,100.00
2023-11-30T18:46:33.552Z,100.00
2023-11-30T18:49:02.831Z,100.00
2023-11-30T18:51:33.662Z,100.00
2023-11-30T18:54:03.364Z,100.00
2023-11-30T18:56:31.498Z,100.00
2023-11-30T18:59:00.398Z,100.00
2023-11-30T19:01:30.573Z,100.00
2023-11-30T19:03:58.845Z,100.00
2023-11-30T19:06:26.947Z,100.00
2023-11-30T19:08:55.133Z,100.00
2023-11-30T19:11:24.500Z,100.00
2023-11-30T19:13:52.614Z,100.00
2023-11-30T19:16:22.656Z,100.00
2023-11-30T19:18:51.809Z,100.00
2023-11-30T19:21:20.519Z,100.00
2023-11-30T19:23:49.093Z,100.00
2023-11-30T19:26:17.460Z,100.00
2023-11-30T19:28:46.848Z,100.00
2023-11-30T19:31:14.891Z,100.00
2023-11-30T19:33:42.964Z,100.00
2023-11-30T19:36:12.023Z,100.00
2023-11-30T19:38:40.072Z,100.00
2023-11-30T19:41:08.785Z,100.00
2023-11-30T19:43:36.891Z,100.00
2023-11-30T19:46:06.772Z,100.00
2023-11-30T19:48:34.946Z,100.00
2023-11-30T19:51:03.050Z,100.00
2023-11-30T19:53:31.390Z,100.00
2023-11-30T19:55:59.795Z,100.00
2023-11-30T19:58:27.861Z,100.00
2023-11-30T20:00:56.055Z,100.00
2023-11-30T20:03:25.435Z,100.00
2023-11-30T20:05:53.750Z,100.00
2023-11-30T20:08:21.934Z,100.00
2023-11-30T20:10:52.654Z,100.00
2023-11-30T20:13:20.960Z,100.00
2023-11-30T20:15:49.077Z,100.00
2023-11-30T20:18:17.136Z,100.00
2023-11-30T20:20:46.437Z,100.00
2023-11-30T20:23:14.447Z,100.00
2023-11-30T20:25:42.504Z,100.00
2023-11-30T20:28:10.738Z,100.00
2023-11-30T20:30:39.160Z,100.00
2023-11-30T20:33:07.255Z,100.00
2023-11-30T20:35:35.249Z,100.00
2023-11-30T20:38:04.653Z,100.00
2023-11-30T20:40:32.636Z,100.00
2023-11-30T20:43:00.634Z,100.00
2023-11-30T20:45:28.653Z,100.00
2023-11-30T20:47:56.912Z,100.00
2023-11-30T20:50:24.880Z,100.00
2023-11-30T20:52:52.883Z,100.00
2023-11-30T20:55:23.765Z,100.00
2023-11-30T20:57:51.879Z,100.00
2023-11-30T21:00:20.501Z,100.00
2023-11-30T21:02:48.606Z,100.00
2023-11-30T21:05:17.210Z,100.00
2023-11-30T21:07:45.280Z,100.00
2023-11-30T21:10:15.071Z,100.00
2023-11-30T21:12:44.748Z,100.00
2023-11-30T21:15:13.167Z,100.00
2023-11-30T21:17:41.110Z,100.00
2023-11-30T21:20:09.845Z,100.00
2023-11-30T21:22:37.892Z,100.00
2023-11-30T21:25:06.336Z,100.00
2023-11-30T21:27:35.177Z,100.00
2023-11-30T21:30:05.022Z,100.00
2023-11-30T21:32:33.017Z,100.00
2023-11-30T21:35:01.059Z,100.00
2023-11-30T21:37:29.614Z,100.00
2023-11-30T21:39:57.692Z,100.00
2023-11-30T21:42:25.662Z,100.00
2023-11-30T21:44:53.641Z,100.00
2023-11-30T21:47:23.273Z,100.00
2023-11-30T21:49:51.297Z,100.00
2023-11-30T21:52:19.423Z,100.00
2023-11-30T21:54:47.457Z,100.00
2023-11-30T21:57:15.950Z,100.00
2023-11-30T21:59:43.964Z,100.00
2023-11-30T22:02:12.100Z,100.00
2023-11-30T22:04:41.543Z,100.00
2023-11-30T22:07:09.593Z,100.00
2023-11-30T22:09:39.111Z,100.00
2023-11-30T22:12:08.668Z,100.00
2023-11-30T22:14:36.659Z,100.00
2023-11-30T22:17:04.908Z,99.13
2023-11-30T22:19:32.991Z,100.00
2023-11-30T22:22:02.420Z,100.00
2023-11-30T22:24:30.518Z,100.00
2023-11-30T22:26:58.593Z,100.00
2023-11-30T22:29:27.317Z,100.00
2023-11-30T22:31:55.631Z,100.00
2023-11-30T22:34:23.818Z,100.00
2023-11-30T22:36:51.845Z,100.00
2023-11-30T22:39:21.221Z,100.00
2023-11-30T22:41:50.701Z,100.00
2023-11-30T22:44:18.693Z,100.00
2023-11-30T22:46:47.057Z,100.00
2023-11-30T22:49:16.038Z,100.00
2023-11-30T22:51:44.811Z,100.00
2023-11-30T22:54:12.912Z,100.00
2023-11-30T22:56:42.375Z,100.00
2023-11-30T22:59:10.384Z,100.00
2023-11-30T23:01:38.642Z,100.00
2023-11-30T23:04:07.158Z,100.00
2023-11-30T23:06:35.297Z,100.00
2023-11-30T23:09:04.063Z,100.00
2023-11-30T23:11:32.610Z,100.00
2023-11-30T23:14:02.008Z,100.00
2023-11-30T23:16:30.802Z,100.00
2023-11-30T23:18:59.284Z,100.00
2023-11-30T23:21:27.627Z,100.00
2023-11-30T23:23:55.617Z,100.00
2023-11-30T23:26:23.739Z,100.00
2023-11-30T23:28:51.710Z,100.00
2023-11-30T23:31:22.177Z,100.00
2023-11-30T23:33:51.600Z,100.00
2023-11-30T23:36:20.046Z,100.00
2023-11-30T23:38:47.983Z,100.00
2023-11-30T23:41:16.456Z,100.00
2023-11-30T23:43:44.389Z,100.00
2023-11-30T23:46:12.440Z,100.00
2023-11-30T23:48:41.814Z,100.00
2023-11-30T23:51:10.218Z,100.00
2023-11-30T23:53:38.918Z,100.00
2023-11-30T23:56:08.028Z,100.00
2023-11-30T23:58:36.011Z,100.00
